sensor_id;sensor_type;location;lat;lon;timestamp;P1;durP1;ratioP1;P2;durP2;ratioP2
28335;SDS011;15592;53.656;7.276;2022-11-12T00:02:08;16.65;;;10.45;;
28335;SDS011;15592;53.656;7.276;2022-11-12T00:04:34;17.77;;;11.13;;
28335;SDS011;15592;53.656;7.276;2022-11-12T00:06:59;19.75;;;11.98;;
28335;SDS011;15592;53.656;7.276;2022-11-12T00:09:25;18.38;;;12.23;;
28335;SDS011;15592;53.656;7.276;2022-11-12T00:11:51;21.83;;;13.95;;
28335;SDS011;15592;53.656;7.276;2022-11-12T00:14:16;22.30;;;12.93;;
28335;SDS011;15592;53.656;7.276;2022-11-12T00:16:42;22.73;;;13.63;;
28335;SDS011;15592;53.656;7.276;2022-11-12T00:19:07;24.65;;;14.13;;
28335;SDS011;15592;53.656;7.276;2022-11-12T00:21:33;24.75;;;15.07;;
28335;SDS011;15592;53.656;7.276;2022-11-12T00:23:59;24.10;;;14.77;;
28335;SDS011;15592;53.656;7.276;2022-11-12T00:26:24;27.23;;;15.15;;
28335;SDS011;15592;53.656;7.276;2022-11-12T00:28:50;25.98;;;15.13;;
28335;SDS011;15592;53.656;7.276;2022-11-12T00:31:15;23.10;;;13.30;;
28335;SDS011;15592;53.656;7.276;2022-11-12T00:33:41;23.17;;;13.77;;
28335;SDS011;15592;53.656;7.276;2022-11-12T00:36:08;26.02;;;15.65;;
28335;SDS011;15592;53.656;7.276;2022-11-12T00:38:34;25.83;;;14.65;;
28335;SDS011;15592;53.656;7.276;2022-11-12T00:41:00;23.33;;;14.52;;
28335;SDS011;15592;53.656;7.276;2022-11-12T00:43:26;23.63;;;14.30;;
28335;SDS011;15592;53.656;7.276;2022-11-12T00:45:52;21.05;;;13.80;;
28335;SDS011;15592;53.656;7.276;2022-11-12T00:48:18;24.05;;;14.45;;
28335;SDS011;15592;53.656;7.276;2022-11-12T00:50:43;21.23;;;13.23;;
28335;SDS011;15592;53.656;7.276;2022-11-12T00:53:09;22.42;;;13.32;;
28335;SDS011;15592;53.656;7.276;2022-11-12T00:55:35;21.52;;;13.18;;
28335;SDS011;15592;53.656;7.276;2022-11-12T00:58:00;21.77;;;13.02;;
28335;SDS011;15592;53.656;7.276;2022-11-12T01:00:26;23.60;;;14.38;;
28335;SDS011;15592;53.656;7.276;2022-11-12T01:02:52;20.30;;;13.00;;
28335;SDS011;15592;53.656;7.276;2022-11-12T01:05:18;20.33;;;13.07;;
28335;SDS011;15592;53.656;7.276;2022-11-12T01:07:44;21.85;;;12.70;;
28335;SDS011;15592;53.656;7.276;2022-11-12T01:10:10;24.20;;;14.35;;
28335;SDS011;15592;53.656;7.276;2022-11-12T01:12:36;22.60;;;13.70;;
28335;SDS011;15592;53.656;7.276;2022-11-12T01:15:03;19.80;;;12.68;;
28335;SDS011;15592;53.656;7.276;2022-11-12T01:17:30;19.75;;;12.30;;
28335;SDS011;15592;53.656;7.276;2022-11-12T01:19:56;22.13;;;14.10;;
28335;SDS011;15592;53.656;7.276;2022-11-12T01:22:21;22.75;;;13.65;;
28335;SDS011;15592;53.656;7.276;2022-11-12T01:24:47;22.25;;;13.95;;
28335;SDS011;15592;53.656;7.276;2022-11-12T01:27:13;25.02;;;14.45;;
28335;SDS011;15592;53.656;7.276;2022-11-12T01:29:39;25.48;;;15.93;;
28335;SDS011;15592;53.656;7.276;2022-11-12T01:32:05;26.33;;;15.45;;
28335;SDS011;15592;53.656;7.276;2022-11-12T01:34:31;23.20;;;14.20;;
28335;SDS011;15592;53.656;7.276;2022-11-12T01:36:57;23.05;;;14.55;;
28335;SDS011;15592;53.656;7.276;2022-11-12T01:39:22;26.08;;;15.80;;
28335;SDS011;15592;53.656;7.276;2022-11-12T01:41:48;22.77;;;14.43;;
28335;SDS011;15592;53.656;7.276;2022-11-12T01:44:16;21.58;;;14.48;;
28335;SDS011;15592;53.656;7.276;2022-11-12T01:47:01;23.88;;;14.23;;
28335;SDS011;15592;53.656;7.276;2022-11-12T01:49:36;23.02;;;13.73;;
28335;SDS011;15592;53.656;7.276;2022-11-12T01:54:35;22.85;;;15.23;;
28335;SDS011;15592;53.656;7.276;2022-11-12T01:57:01;26.55;;;15.88;;
28335;SDS011;15592;53.656;7.276;2022-11-12T01:59:28;24.27;;;15.40;;
28335;SDS011;15592;53.656;7.276;2022-11-12T02:02:00;25.63;;;16.02;;
28335;SDS011;15592;53.656;7.276;2022-11-12T02:04:26;25.77;;;15.15;;
28335;SDS011;15592;53.656;7.276;2022-11-12T02:06:52;21.83;;;13.75;;
28335;SDS011;15592;53.656;7.276;2022-11-12T02:09:21;25.27;;;13.65;;
28335;SDS011;15592;53.656;7.276;2022-11-12T02:11:47;21.38;;;13.30;;
28335;SDS011;15592;53.656;7.276;2022-11-12T02:14:12;22.35;;;13.95;;
28335;SDS011;15592;53.656;7.276;2022-11-12T02:16:39;19.73;;;13.75;;
28335;SDS011;15592;53.656;7.276;2022-11-12T02:19:08;19.88;;;13.82;;
28335;SDS011;15592;53.656;7.276;2022-11-12T02:21:36;19.60;;;12.13;;
28335;SDS011;15592;53.656;7.276;2022-11-12T02:26:51;16.08;;;10.85;;
28335;SDS011;15592;53.656;7.276;2022-11-12T02:29:19;17.73;;;12.05;;
28335;SDS011;15592;53.656;7.276;2022-11-12T02:31:45;19.25;;;12.70;;
28335;SDS011;15592;53.656;7.276;2022-11-12T02:34:10;19.60;;;12.27;;
28335;SDS011;15592;53.656;7.276;2022-11-12T02:36:36;20.55;;;13.02;;
28335;SDS011;15592;53.656;7.276;2022-11-12T02:39:02;18.60;;;13.23;;
28335;SDS011;15592;53.656;7.276;2022-11-12T02:41:28;20.65;;;12.98;;
28335;SDS011;15592;53.656;7.276;2022-11-12T02:43:53;21.13;;;13.93;;
28335;SDS011;15592;53.656;7.276;2022-11-12T02:46:19;22.20;;;13.73;;
28335;SDS011;15592;53.656;7.276;2022-11-12T02:48:44;21.42;;;14.23;;
28335;SDS011;15592;53.656;7.276;2022-11-12T02:51:10;19.13;;;13.27;;
28335;SDS011;15592;53.656;7.276;2022-11-12T02:53:36;20.83;;;12.90;;
28335;SDS011;15592;53.656;7.276;2022-11-12T02:56:02;20.50;;;12.82;;
28335;SDS011;15592;53.656;7.276;2022-11-12T02:58:28;24.58;;;13.68;;
28335;SDS011;15592;53.656;7.276;2022-11-12T03:00:54;19.67;;;12.63;;
28335;SDS011;15592;53.656;7.276;2022-11-12T03:03:20;22.85;;;13.50;;
28335;SDS011;15592;53.656;7.276;2022-11-12T03:05:51;22.85;;;13.75;;
28335;SDS011;15592;53.656;7.276;2022-11-12T03:08:22;21.45;;;14.85;;
28335;SDS011;15592;53.656;7.276;2022-11-12T03:10:48;23.67;;;15.10;;
28335;SDS011;15592;53.656;7.276;2022-11-12T03:13:14;21.95;;;15.07;;
28335;SDS011;15592;53.656;7.276;2022-11-12T03:15:40;23.38;;;14.55;;
28335;SDS011;15592;53.656;7.276;2022-11-12T03:18:06;23.20;;;14.88;;
28335;SDS011;15592;53.656;7.276;2022-11-12T03:20:31;23.05;;;14.45;;
28335;SDS011;15592;53.656;7.276;2022-11-12T03:23:03;19.48;;;14.07;;
28335;SDS011;15592;53.656;7.276;2022-11-12T03:25:31;23.30;;;14.85;;
28335;SDS011;15592;53.656;7.276;2022-11-12T03:28:02;23.75;;;15.10;;
28335;SDS011;15592;53.656;7.276;2022-11-12T03:30:31;23.50;;;15.32;;
28335;SDS011;15592;53.656;7.276;2022-11-12T03:32:58;24.83;;;15.82;;
28335;SDS011;15592;53.656;7.276;2022-11-12T03:35:23;26.25;;;15.85;;
28335;SDS011;15592;53.656;7.276;2022-11-12T03:37:50;24.23;;;15.82;;
28335;SDS011;15592;53.656;7.276;2022-11-12T03:40:17;22.83;;;14.80;;
28335;SDS011;15592;53.656;7.276;2022-11-12T03:42:43;21.10;;;14.65;;
28335;SDS011;15592;53.656;7.276;2022-11-12T03:45:10;21.60;;;12.32;;
28335;SDS011;15592;53.656;7.276;2022-11-12T03:47:39;17.65;;;11.50;;
28335;SDS011;15592;53.656;7.276;2022-11-12T03:50:12;20.27;;;12.75;;
28335;SDS011;15592;53.656;7.276;2022-11-12T03:52:43;18.83;;;13.07;;
28335;SDS011;15592;53.656;7.276;2022-11-12T03:55:12;20.90;;;13.30;;
28335;SDS011;15592;53.656;7.276;2022-11-12T03:57:39;16.35;;;11.55;;
28335;SDS011;15592;53.656;7.276;2022-11-12T04:00:05;19.88;;;12.93;;
28335;SDS011;15592;53.656;7.276;2022-11-12T04:02:32;18.90;;;13.50;;
28335;SDS011;15592;53.656;7.276;2022-11-12T04:04:57;19.48;;;13.23;;
28335;SDS011;15592;53.656;7.276;2022-11-12T04:07:42;22.10;;;14.38;;
28335;SDS011;15592;53.656;7.276;2022-11-12T04:10:26;23.85;;;14.90;;
28335;SDS011;15592;53.656;7.276;2022-11-12T04:12:53;21.52;;;14.80;;
28335;SDS011;15592;53.656;7.276;2022-11-12T04:15:38;23.15;;;15.18;;
28335;SDS011;15592;53.656;7.276;2022-11-12T04:18:03;23.10;;;14.20;;
28335;SDS011;15592;53.656;7.276;2022-11-12T04:20:48;23.33;;;15.18;;
28335;SDS011;15592;53.656;7.276;2022-11-12T04:23:32;25.90;;;16.88;;
28335;SDS011;15592;53.656;7.276;2022-11-12T04:25:58;26.02;;;16.95;;
28335;SDS011;15592;53.656;7.276;2022-11-12T04:28:42;26.63;;;17.10;;
28335;SDS011;15592;53.656;7.276;2022-11-12T04:31:26;23.75;;;16.90;;
28335;SDS011;15592;53.656;7.276;2022-11-12T04:33:51;22.75;;;15.32;;
28335;SDS011;15592;53.656;7.276;2022-11-12T04:36:17;27.88;;;16.27;;
28335;SDS011;15592;53.656;7.276;2022-11-12T04:38:43;26.40;;;17.70;;
28335;SDS011;15592;53.656;7.276;2022-11-12T04:41:11;25.77;;;16.48;;
28335;SDS011;15592;53.656;7.276;2022-11-12T04:43:55;24.13;;;15.57;;
28335;SDS011;15592;53.656;7.276;2022-11-12T04:46:39;23.63;;;15.73;;
28335;SDS011;15592;53.656;7.276;2022-11-12T04:49:05;22.10;;;16.13;;
28335;SDS011;15592;53.656;7.276;2022-11-12T04:51:30;26.10;;;16.83;;
28335;SDS011;15592;53.656;7.276;2022-11-12T04:54:14;24.50;;;16.98;;
28335;SDS011;15592;53.656;7.276;2022-11-12T04:56:40;26.67;;;16.67;;
28335;SDS011;15592;53.656;7.276;2022-11-12T04:59:06;23.30;;;15.77;;
28335;SDS011;15592;53.656;7.276;2022-11-12T05:01:31;21.80;;;14.48;;
28335;SDS011;15592;53.656;7.276;2022-11-12T05:03:57;24.45;;;16.00;;
28335;SDS011;15592;53.656;7.276;2022-11-12T05:06:23;28.70;;;18.13;;
28335;SDS011;15592;53.656;7.276;2022-11-12T05:09:07;30.92;;;18.88;;
28335;SDS011;15592;53.656;7.276;2022-11-12T05:11:33;26.08;;;17.05;;
28335;SDS011;15592;53.656;7.276;2022-11-12T05:13:58;25.05;;;17.85;;
28335;SDS011;15592;53.656;7.276;2022-11-12T05:16:24;24.60;;;17.38;;
28335;SDS011;15592;53.656;7.276;2022-11-12T05:18:49;24.48;;;16.02;;
28335;SDS011;15592;53.656;7.276;2022-11-12T05:21:15;22.30;;;15.70;;
28335;SDS011;15592;53.656;7.276;2022-11-12T05:23:59;22.58;;;15.57;;
28335;SDS011;15592;53.656;7.276;2022-11-12T05:26:25;24.40;;;15.88;;
28335;SDS011;15592;53.656;7.276;2022-11-12T05:28:50;26.42;;;16.25;;
28335;SDS011;15592;53.656;7.276;2022-11-12T05:31:16;24.02;;;16.63;;
28335;SDS011;15592;53.656;7.276;2022-11-12T05:33:41;24.67;;;17.40;;
28335;SDS011;15592;53.656;7.276;2022-11-12T05:36:07;25.75;;;16.77;;
28335;SDS011;15592;53.656;7.276;2022-11-12T05:38:33;26.17;;;17.08;;
28335;SDS011;15592;53.656;7.276;2022-11-12T05:40:58;24.50;;;17.08;;
28335;SDS011;15592;53.656;7.276;2022-11-12T05:43:24;27.67;;;17.63;;
28335;SDS011;15592;53.656;7.276;2022-11-12T05:45:50;24.50;;;18.10;;
28335;SDS011;15592;53.656;7.276;2022-11-12T05:50:41;27.38;;;18.23;;
28335;SDS011;15592;53.656;7.276;2022-11-12T05:53:06;26.25;;;17.63;;
28335;SDS011;15592;53.656;7.276;2022-11-12T05:55:35;32.10;;;18.65;;
28335;SDS011;15592;53.656;7.276;2022-11-12T05:58:04;35.05;;;21.95;;
28335;SDS011;15592;53.656;7.276;2022-11-12T06:00:30;32.75;;;21.63;;
28335;SDS011;15592;53.656;7.276;2022-11-12T06:03:02;33.60;;;21.98;;
28335;SDS011;15592;53.656;7.276;2022-11-12T06:05:31;35.10;;;22.25;;
28335;SDS011;15592;53.656;7.276;2022-11-12T06:07:57;33.85;;;21.52;;
28335;SDS011;15592;53.656;7.276;2022-11-12T06:10:33;32.78;;;20.90;;
28335;SDS011;15592;53.656;7.276;2022-11-12T06:12:59;35.92;;;22.10;;
28335;SDS011;15592;53.656;7.276;2022-11-12T06:15:25;34.15;;;22.45;;
28335;SDS011;15592;53.656;7.276;2022-11-12T06:17:54;37.45;;;22.88;;
28335;SDS011;15592;53.656;7.276;2022-11-12T06:20:23;32.25;;;21.23;;
28335;SDS011;15592;53.656;7.276;2022-11-12T06:25:40;30.83;;;19.63;;
28335;SDS011;15592;53.656;7.276;2022-11-12T06:28:06;34.88;;;22.95;;
28335;SDS011;15592;53.656;7.276;2022-11-12T06:30:32;35.47;;;23.33;;
28335;SDS011;15592;53.656;7.276;2022-11-12T06:32:57;36.53;;;24.65;;
28335;SDS011;15592;53.656;7.276;2022-11-12T06:35:23;33.53;;;22.80;;
28335;SDS011;15592;53.656;7.276;2022-11-12T06:37:49;32.70;;;22.63;;
28335;SDS011;15592;53.656;7.276;2022-11-12T06:40:14;32.90;;;22.58;;
28335;SDS011;15592;53.656;7.276;2022-11-12T06:42:40;35.30;;;24.33;;
28335;SDS011;15592;53.656;7.276;2022-11-12T06:45:08;35.08;;;23.60;;
28335;SDS011;15592;53.656;7.276;2022-11-12T06:47:34;40.35;;;24.80;;
28335;SDS011;15592;53.656;7.276;2022-11-12T06:50:08;35.20;;;22.92;;
28335;SDS011;15592;53.656;7.276;2022-11-12T06:52:34;35.60;;;22.80;;
28335;SDS011;15592;53.656;7.276;2022-11-12T06:55:00;36.42;;;23.58;;
28335;SDS011;15592;53.656;7.276;2022-11-12T06:57:25;36.08;;;23.00;;
28335;SDS011;15592;53.656;7.276;2022-11-12T06:59:51;36.13;;;23.35;;
28335;SDS011;15592;53.656;7.276;2022-11-12T07:02:16;34.15;;;23.92;;
28335;SDS011;15592;53.656;7.276;2022-11-12T07:04:42;34.28;;;22.40;;
28335;SDS011;15592;53.656;7.276;2022-11-12T07:07:08;36.40;;;23.10;;
28335;SDS011;15592;53.656;7.276;2022-11-12T07:09:33;33.40;;;22.63;;
28335;SDS011;15592;53.656;7.276;2022-11-12T07:11:59;31.67;;;22.77;;
28335;SDS011;15592;53.656;7.276;2022-11-12T07:14:24;30.45;;;21.02;;
28335;SDS011;15592;53.656;7.276;2022-11-12T07:16:50;30.60;;;21.35;;
28335;SDS011;15592;53.656;7.276;2022-11-12T07:19:15;32.85;;;20.60;;
28335;SDS011;15592;53.656;7.276;2022-11-12T07:21:41;25.70;;;18.17;;
28335;SDS011;15592;53.656;7.276;2022-11-12T07:24:07;28.48;;;19.85;;
28335;SDS011;15592;53.656;7.276;2022-11-12T07:26:33;29.50;;;19.52;;
28335;SDS011;15592;53.656;7.276;2022-11-12T07:29:01;27.17;;;18.73;;
28335;SDS011;15592;53.656;7.276;2022-11-12T07:31:27;26.02;;;17.33;;
28335;SDS011;15592;53.656;7.276;2022-11-12T07:33:52;28.00;;;18.15;;
28335;SDS011;15592;53.656;7.276;2022-11-12T07:36:19;28.25;;;20.42;;
28335;SDS011;15592;53.656;7.276;2022-11-12T07:38:45;28.98;;;19.33;;
28335;SDS011;15592;53.656;7.276;2022-11-12T07:41:15;26.25;;;19.55;;
28335;SDS011;15592;53.656;7.276;2022-11-12T07:43:55;28.83;;;19.02;;
28335;SDS011;15592;53.656;7.276;2022-11-12T07:47:02;27.23;;;18.80;;
28335;SDS011;15592;53.656;7.276;2022-11-12T07:49:27;28.58;;;19.38;;
28335;SDS011;15592;53.656;7.276;2022-11-12T07:51:53;28.38;;;19.42;;
28335;SDS011;15592;53.656;7.276;2022-11-12T07:54:29;28.80;;;19.85;;
28335;SDS011;15592;53.656;7.276;2022-11-12T07:56:58;26.05;;;18.92;;
28335;SDS011;15592;53.656;7.276;2022-11-12T07:59:24;27.55;;;18.23;;
28335;SDS011;15592;53.656;7.276;2022-11-12T08:01:49;26.35;;;17.50;;
28335;SDS011;15592;53.656;7.276;2022-11-12T08:04:15;26.50;;;17.73;;
28335;SDS011;15592;53.656;7.276;2022-11-12T08:06:43;23.15;;;17.00;;
28335;SDS011;15592;53.656;7.276;2022-11-12T08:09:18;23.55;;;16.13;;
28335;SDS011;15592;53.656;7.276;2022-11-12T08:14:34;22.48;;;15.60;;
28335;SDS011;15592;53.656;7.276;2022-11-12T08:17:00;23.05;;;15.55;;
28335;SDS011;15592;53.656;7.276;2022-11-12T08:19:26;20.60;;;14.32;;
28335;SDS011;15592;53.656;7.276;2022-11-12T08:21:51;21.15;;;14.50;;
28335;SDS011;15592;53.656;7.276;2022-11-12T08:24:17;18.30;;;13.45;;
28335;SDS011;15592;53.656;7.276;2022-11-12T08:26:43;18.33;;;13.40;;
28335;SDS011;15592;53.656;7.276;2022-11-12T08:29:08;17.60;;;12.00;;
28335;SDS011;15592;53.656;7.276;2022-11-12T08:31:34;16.67;;;11.85;;
28335;SDS011;15592;53.656;7.276;2022-11-12T08:34:00;20.75;;;13.70;;
28335;SDS011;15592;53.656;7.276;2022-11-12T08:36:35;24.08;;;16.80;;
28335;SDS011;15592;53.656;7.276;2022-11-12T08:39:02;26.65;;;18.55;;
28335;SDS011;15592;53.656;7.276;2022-11-12T08:41:27;25.42;;;17.42;;
28335;SDS011;15592;53.656;7.276;2022-11-12T08:43:53;24.38;;;15.55;;
28335;SDS011;15592;53.656;7.276;2022-11-12T08:46:19;23.05;;;15.20;;
28335;SDS011;15592;53.656;7.276;2022-11-12T08:48:44;23.20;;;15.57;;
28335;SDS011;15592;53.656;7.276;2022-11-12T08:51:10;24.67;;;16.35;;
28335;SDS011;15592;53.656;7.276;2022-11-12T08:53:35;24.58;;;17.02;;
28335;SDS011;15592;53.656;7.276;2022-11-12T08:56:01;24.08;;;16.77;;
28335;SDS011;15592;53.656;7.276;2022-11-12T08:58:27;20.02;;;14.68;;
28335;SDS011;15592;53.656;7.276;2022-11-12T09:00:53;18.30;;;13.40;;
28335;SDS011;15592;53.656;7.276;2022-11-12T09:03:21;16.55;;;12.43;;
28335;SDS011;15592;53.656;7.276;2022-11-12T09:05:48;16.95;;;12.15;;
28335;SDS011;15592;53.656;7.276;2022-11-12T09:08:15;20.33;;;13.63;;
28335;SDS011;15592;53.656;7.276;2022-11-12T09:10:43;24.58;;;16.25;;
28335;SDS011;15592;53.656;7.276;2022-11-12T09:13:09;25.30;;;17.75;;
28335;SDS011;15592;53.656;7.276;2022-11-12T09:15:35;23.27;;;17.45;;
28335;SDS011;15592;53.656;7.276;2022-11-12T09:18:03;26.80;;;18.67;;
28335;SDS011;15592;53.656;7.276;2022-11-12T09:20:29;25.30;;;18.30;;
28335;SDS011;15592;53.656;7.276;2022-11-12T09:22:59;22.52;;;16.80;;
28335;SDS011;15592;53.656;7.276;2022-11-12T09:25:31;27.75;;;18.83;;
28335;SDS011;15592;53.656;7.276;2022-11-12T09:28:01;23.00;;;16.73;;
28335;SDS011;15592;53.656;7.276;2022-11-12T09:30:34;28.48;;;19.48;;
28335;SDS011;15592;53.656;7.276;2022-11-12T09:33:03;37.28;;;25.13;;
28335;SDS011;15592;53.656;7.276;2022-11-12T09:35:29;49.78;;;31.40;;
28335;SDS011;15592;53.656;7.276;2022-11-12T09:37:55;50.97;;;32.10;;
28335;SDS011;15592;53.656;7.276;2022-11-12T09:40:22;48.10;;;31.23;;
28335;SDS011;15592;53.656;7.276;2022-11-12T09:43:00;44.55;;;30.15;;
28335;SDS011;15592;53.656;7.276;2022-11-12T09:45:39;45.47;;;29.27;;
28335;SDS011;15592;53.656;7.276;2022-11-12T09:48:06;48.40;;;30.42;;
28335;SDS011;15592;53.656;7.276;2022-11-12T09:50:58;48.72;;;31.35;;
28335;SDS011;15592;53.656;7.276;2022-11-12T09:56:05;57.80;;;32.65;;
28335;SDS011;15592;53.656;7.276;2022-11-12T09:58:37;49.22;;;30.48;;
28335;SDS011;15592;53.656;7.276;2022-11-12T10:01:31;45.65;;;28.67;;
28335;SDS011;15592;53.656;7.276;2022-11-12T10:12:38;47.58;;;27.85;;
28335;SDS011;15592;53.656;7.276;2022-11-12T10:18:31;38.40;;;24.52;;
28335;SDS011;15592;53.656;7.276;2022-11-12T10:21:33;48.42;;;28.38;;
28335;SDS011;15592;53.656;7.276;2022-11-12T10:24:06;48.85;;;29.55;;
28335;SDS011;15592;53.656;7.276;2022-11-12T10:26:33;63.22;;;35.17;;
28335;SDS011;15592;53.656;7.276;2022-11-12T10:31:52;66.13;;;38.45;;
28335;SDS011;15592;53.656;7.276;2022-11-12T10:34:18;68.28;;;38.10;;
28335;SDS011;15592;53.656;7.276;2022-11-12T10:36:47;59.03;;;34.47;;
28335;SDS011;15592;53.656;7.276;2022-11-12T10:39:32;53.38;;;31.50;;
28335;SDS011;15592;53.656;7.276;2022-11-12T10:42:08;55.13;;;33.38;;
28335;SDS011;15592;53.656;7.276;2022-11-12T10:44:36;53.42;;;31.42;;
28335;SDS011;15592;53.656;7.276;2022-11-12T10:47:19;62.80;;;35.53;;
28335;SDS011;15592;53.656;7.276;2022-11-12T10:52:29;66.65;;;35.83;;
28335;SDS011;15592;53.656;7.276;2022-11-12T10:55:06;62.50;;;35.15;;
28335;SDS011;15592;53.656;7.276;2022-11-12T10:57:39;60.13;;;35.42;;
28335;SDS011;15592;53.656;7.276;2022-11-12T11:02:37;72.95;;;41.45;;
28335;SDS011;15592;53.656;7.276;2022-11-12T11:05:33;69.22;;;41.15;;
28335;SDS011;15592;53.656;7.276;2022-11-12T11:08:00;64.15;;;38.33;;
28335;SDS011;15592;53.656;7.276;2022-11-12T11:10:27;68.30;;;39.55;;
28335;SDS011;15592;53.656;7.276;2022-11-12T11:16:13;71.45;;;40.85;;
28335;SDS011;15592;53.656;7.276;2022-11-12T11:18:57;90.30;;;46.58;;
28335;SDS011;15592;53.656;7.276;2022-11-12T11:30:16;70.15;;;38.75;;
28335;SDS011;15592;53.656;7.276;2022-11-12T11:35:55;67.40;;;37.67;;
28335;SDS011;15592;53.656;7.276;2022-11-12T11:46:45;69.03;;;38.75;;
28335;SDS011;15592;53.656;7.276;2022-11-12T12:00:44;76.10;;;40.85;;
28335;SDS011;15592;53.656;7.276;2022-11-12T12:05:49;64.28;;;37.42;;
28335;SDS011;15592;53.656;7.276;2022-11-12T12:08:45;79.00;;;43.33;;
28335;SDS011;15592;53.656;7.276;2022-11-12T12:14:27;80.05;;;43.55;;
28335;SDS011;15592;53.656;7.276;2022-11-12T12:17:03;77.38;;;42.10;;
28335;SDS011;15592;53.656;7.276;2022-11-12T12:22:48;83.30;;;45.28;;
28335;SDS011;15592;53.656;7.276;2022-11-12T12:25:40;86.68;;;47.60;;
28335;SDS011;15592;53.656;7.276;2022-11-12T12:30:46;79.35;;;45.55;;
28335;SDS011;15592;53.656;7.276;2022-11-12T12:39:13;69.00;;;38.45;;
28335;SDS011;15592;53.656;7.276;2022-11-12T12:44:29;72.88;;;40.20;;
28335;SDS011;15592;53.656;7.276;2022-11-12T12:47:21;62.65;;;35.92;;
28335;SDS011;15592;53.656;7.276;2022-11-12T12:49:47;61.90;;;34.30;;
28335;SDS011;15592;53.656;7.276;2022-11-12T12:52:14;50.63;;;30.80;;
28335;SDS011;15592;53.656;7.276;2022-11-12T12:57:39;50.67;;;29.60;;
28335;SDS011;15592;53.656;7.276;2022-11-12T13:03:03;69.30;;;39.65;;
28335;SDS011;15592;53.656;7.276;2022-11-12T13:05:36;71.90;;;41.33;;
28335;SDS011;15592;53.656;7.276;2022-11-12T13:08:18;68.22;;;38.22;;
28335;SDS011;15592;53.656;7.276;2022-11-12T13:11:09;62.75;;;37.03;;
28335;SDS011;15592;53.656;7.276;2022-11-12T13:13:35;60.33;;;35.03;;
28335;SDS011;15592;53.656;7.276;2022-11-12T13:16:02;56.50;;;34.47;;
28335;SDS011;15592;53.656;7.276;2022-11-12T13:23:42;64.78;;;38.13;;
28335;SDS011;15592;53.656;7.276;2022-11-12T13:26:47;56.92;;;34.15;;
28335;SDS011;15592;53.656;7.276;2022-11-12T13:32:53;52.22;;;30.70;;
28335;SDS011;15592;53.656;7.276;2022-11-12T13:35:08;53.05;;;32.25;;
28335;SDS011;15592;53.656;7.276;2022-11-12T13:52:47;39.40;;;24.50;;
28335;SDS011;15592;53.656;7.276;2022-11-12T13:55:17;35.35;;;22.63;;
28335;SDS011;15592;53.656;7.276;2022-11-12T13:58:36;30.77;;;19.92;;
28335;SDS011;15592;53.656;7.276;2022-11-12T14:01:09;28.65;;;19.75;;
28335;SDS011;15592;53.656;7.276;2022-11-12T14:03:43;30.15;;;19.95;;
28335;SDS011;15592;53.656;7.276;2022-11-12T14:06:18;25.42;;;17.40;;
28335;SDS011;15592;53.656;7.276;2022-11-12T14:11:51;21.63;;;14.93;;
28335;SDS011;15592;53.656;7.276;2022-11-12T14:22:46;21.00;;;13.55;;
28335;SDS011;15592;53.656;7.276;2022-11-12T14:25:20;19.90;;;14.32;;
28335;SDS011;15592;53.656;7.276;2022-11-12T14:27:51;21.33;;;14.73;;
28335;SDS011;15592;53.656;7.276;2022-11-12T14:30:21;20.27;;;13.85;;
28335;SDS011;15592;53.656;7.276;2022-11-12T14:32:56;18.60;;;12.82;;
28335;SDS011;15592;53.656;7.276;2022-11-12T14:40:44;17.20;;;11.82;;
28335;SDS011;15592;53.656;7.276;2022-11-12T14:43:23;16.83;;;12.35;;
28335;SDS011;15592;53.656;7.276;2022-11-12T14:45:58;18.52;;;12.73;;
28335;SDS011;15592;53.656;7.276;2022-11-12T14:48:25;21.85;;;14.75;;
28335;SDS011;15592;53.656;7.276;2022-11-12T14:50:56;21.50;;;15.07;;
28335;SDS011;15592;53.656;7.276;2022-11-12T14:53:42;24.60;;;16.40;;
28335;SDS011;15592;53.656;7.276;2022-11-12T14:59:15;25.75;;;17.48;;
28335;SDS011;15592;53.656;7.276;2022-11-12T15:02:08;26.38;;;17.35;;
28335;SDS011;15592;53.656;7.276;2022-11-12T15:04:41;24.35;;;16.88;;
28335;SDS011;15592;53.656;7.276;2022-11-12T15:09:56;23.50;;;16.00;;
28335;SDS011;15592;53.656;7.276;2022-11-12T15:12:23;21.75;;;15.25;;
28335;SDS011;15592;53.656;7.276;2022-11-12T15:14:51;24.95;;;17.02;;
28335;SDS011;15592;53.656;7.276;2022-11-12T15:17:30;30.15;;;19.80;;
28335;SDS011;15592;53.656;7.276;2022-11-12T15:20:04;27.35;;;18.83;;
28335;SDS011;15592;53.656;7.276;2022-11-12T15:22:37;27.75;;;19.20;;
28335;SDS011;15592;53.656;7.276;2022-11-12T15:25:10;26.60;;;17.38;;
28335;SDS011;15592;53.656;7.276;2022-11-12T15:27:42;24.75;;;16.48;;
28335;SDS011;15592;53.656;7.276;2022-11-12T15:30:21;21.77;;;14.80;;
28335;SDS011;15592;53.656;7.276;2022-11-12T15:32:49;20.08;;;14.15;;
28335;SDS011;15592;53.656;7.276;2022-11-12T15:35:34;19.35;;;13.43;;
28335;SDS011;15592;53.656;7.276;2022-11-12T15:38:02;18.13;;;11.75;;
28335;SDS011;15592;53.656;7.276;2022-11-12T15:40:40;15.95;;;11.77;;
28335;SDS011;15592;53.656;7.276;2022-11-12T15:46:10;16.02;;;11.27;;
28335;SDS011;15592;53.656;7.276;2022-11-12T15:48:37;14.98;;;10.80;;
28335;SDS011;15592;53.656;7.276;2022-11-12T15:51:03;16.98;;;11.77;;
28335;SDS011;15592;53.656;7.276;2022-11-12T15:53:29;17.50;;;12.85;;
28335;SDS011;15592;53.656;7.276;2022-11-12T15:55:54;17.90;;;12.30;;
28335;SDS011;15592;53.656;7.276;2022-11-12T15:58:25;16.65;;;11.98;;
28335;SDS011;15592;53.656;7.276;2022-11-12T16:08:30;17.63;;;12.65;;
28335;SDS011;15592;53.656;7.276;2022-11-12T16:10:55;18.45;;;12.75;;
28335;SDS011;15592;53.656;7.276;2022-11-12T16:15:52;16.70;;;12.10;;
28335;SDS011;15592;53.656;7.276;2022-11-12T16:18:18;16.23;;;11.07;;
28335;SDS011;15592;53.656;7.276;2022-11-12T16:20:44;17.17;;;11.77;;
28335;SDS011;15592;53.656;7.276;2022-11-12T16:23:11;15.60;;;10.82;;
28335;SDS011;15592;53.656;7.276;2022-11-12T16:25:37;13.52;;;9.88;;
28335;SDS011;15592;53.656;7.276;2022-11-12T16:28:05;13.77;;;10.70;;
28335;SDS011;15592;53.656;7.276;2022-11-12T16:30:39;14.68;;;10.35;;
28335;SDS011;15592;53.656;7.276;2022-11-12T16:33:05;13.63;;;9.77;;
28335;SDS011;15592;53.656;7.276;2022-11-12T16:35:34;13.27;;;9.90;;
28335;SDS011;15592;53.656;7.276;2022-11-12T16:38:00;12.43;;;9.30;;
28335;SDS011;15592;53.656;7.276;2022-11-12T16:40:27;13.52;;;9.88;;
28335;SDS011;15592;53.656;7.276;2022-11-12T16:42:54;15.80;;;11.05;;
28335;SDS011;15592;53.656;7.276;2022-11-12T16:45:20;17.95;;;12.38;;
28335;SDS011;15592;53.656;7.276;2022-11-12T16:47:49;17.35;;;11.57;;
28335;SDS011;15592;53.656;7.276;2022-11-12T16:50:19;15.07;;;10.80;;
28335;SDS011;15592;53.656;7.276;2022-11-12T16:52:47;13.18;;;9.82;;
28335;SDS011;15592;53.656;7.276;2022-11-12T17:20:03;24.63;;;16.45;;
28335;SDS011;15592;53.656;7.276;2022-11-12T17:22:29;25.23;;;17.70;;
28335;SDS011;15592;53.656;7.276;2022-11-12T17:24:55;27.65;;;18.27;;
28335;SDS011;15592;53.656;7.276;2022-11-12T17:27:23;27.27;;;18.73;;
28335;SDS011;15592;53.656;7.276;2022-11-12T17:29:49;27.63;;;18.58;;
28335;SDS011;15592;53.656;7.276;2022-11-12T17:32:15;27.80;;;18.50;;
28335;SDS011;15592;53.656;7.276;2022-11-12T17:34:41;27.38;;;17.70;;
28335;SDS011;15592;53.656;7.276;2022-11-12T17:37:06;25.67;;;17.73;;